Time;durP1;ratioP1;P1;durP2;ratioP2;P2;SDS_P1;SDS_P2;PMS_P1;PMS_P2;Temp;Humidity;BMP_temperature;BMP_pressure;BME280_temperature;BME280_humidity;BME280_pressure;Samples;Min_cycle;Max_cycle;Signal;HPM_P1;HPM_P2
2022/10/11 00:02:18;;;;;;;4.43;2.08;;;18.20;64.90;;;;;;4218192;28;20040;-42
2022/10/11 00:04:40;;;;;;;3.17;1.70;;;18.20;65.00;;;;;;4219907;27;20050;-44
2022/10/11 00:07:03;;;;;;;2.85;1.48;;;18.20;65.60;;;;;;4218236;28;20100;-42
2022/10/11 00:09:26;;;;;;;2.60;1.58;;;18.20;66.10;;;;;;4221477;27;20567;-43
2022/10/11 00:11:48;;;;;;;2.33;1.30;;;18.30;66.50;;;;;;4218072;27;20034;-42
2022/10/11 00:14:11;;;;;;;4.45;1.45;;;18.30;66.60;;;;;;4220376;27;20131;-45
2022/10/11 00:16:33;;;;;;;3.17;1.50;;;18.30;66.60;;;;;;4218859;27;20075;-44
2022/10/11 00:18:56;;;;;;;4.20;1.83;;;18.30;66.50;;;;;;4211359;28;20109;-42
2022/10/11 00:21:20;;;;;;;3.33;1.58;;;18.40;66.70;;;;;;4220057;27;20063;-41
2022/10/11 00:23:42;;;;;;;;;;;18.40;66.80;;;;;;4223541;27;20568;-43
2022/10/11 00:26:07;;;;;;;3.45;1.25;;;18.40;66.90;;;;;;4205307;28;19974;-47
2022/10/11 00:28:30;;;;;;;2.72;1.70;;;18.40;66.90;;;;;;4214736;27;20035;-44
2022/10/11 00:30:53;;;;;;;2.05;1.48;;;18.40;66.60;;;;;;4218023;27;20110;-47
2022/10/11 00:33:15;;;;;;;2.33;1.35;;;18.50;66.50;;;;;;4217140;27;20047;-44
2022/10/11 00:35:40;;;;;;;3.38;1.40;;;18.40;66.50;;;;;;4220461;27;20039;-48
2022/10/11 00:38:03;;;;;;;5.30;1.75;;;18.40;66.70;;;;;;4217444;27;21335;-45
2022/10/11 00:40:25;;;;;;;2.30;1.23;;;18.40;66.70;;;;;;4216298;27;20031;-48
2022/10/11 00:42:48;;;;;;;3.60;1.45;;;18.40;66.60;;;;;;4218624;27;20050;-45
2022/10/11 00:45:58;;;;;;;3.45;1.60;;;18.40;66.70;;;;;;4211427;27;20028;-43
2022/10/11 00:48:30;;;;;;;4.45;1.40;;;18.40;66.80;;;;;;4148042;28;20041;-46
2022/10/11 00:50:58;;;;;;;5.10;1.70;;;18.50;66.80;;;;;;4145893;28;20072;-43
2022/10/11 00:53:21;;;;;;;2.92;1.17;;;18.50;66.80;;;;;;4193380;28;20039;-44
2022/10/11 00:55:55;;;;;;;3.28;1.70;;;18.50;66.70;;;;;;4219666;27;21204;-43
2022/10/11 00:58:18;;;;;;;3.25;1.85;;;18.50;66.70;;;;;;4200825;28;20201;-45
2022/10/11 01:00:41;;;;;;;2.70;1.48;;;18.50;67.20;;;;;;4217796;27;20042;-47
2022/10/11 01:03:05;;;;;;;2.33;1.40;;;18.50;66.90;;;;;;4216356;27;20088;-47
2022/10/11 01:05:28;;;;;;;2.45;1.45;;;18.50;67.00;;;;;;4217367;28;20028;-43
2022/10/11 01:07:52;;;;;;;2.72;1.65;;;18.50;66.80;;;;;;4215244;27;20082;-44
2022/10/11 01:10:15;;;;;;;2.05;1.50;;;18.60;66.90;;;;;;4223524;27;20032;-43
2022/10/11 01:13:00;;;;;;;3.42;1.85;;;18.60;67.10;;;;;;4221851;27;20052;-44
2022/10/11 01:15:30;;;;;;;3.83;1.60;;;18.60;67.20;;;;;;4197445;27;20041;-41
2022/10/11 01:18:03;;;;;;;5.47;1.65;;;18.60;67.10;;;;;;4215993;27;20044;-44
2022/10/11 01:20:53;;;;;;;5.38;1.80;;;18.60;67.00;;;;;;4222422;27;20062;-43
2022/10/11 01:23:36;;;;;;;1.95;1.45;;;18.70;67.10;;;;;;4221234;27;20119;-40
2022/10/11 01:26:31;;;;;;;3.88;1.65;;;18.60;67.00;;;;;;4221387;27;20054;-41
2022/10/11 01:29:32;;;;;;;4.93;2.00;;;18.80;68.10;;;;;;4223959;27;20047;-40
2022/10/11 01:32:23;;;;;;;2.40;1.38;;;18.80;68.10;;;;;;4205160;28;20039;-40
2022/10/11 01:34:56;;;;;;;5.25;2.10;;;18.80;67.40;;;;;;4218249;27;20345;-42
2022/10/11 01:37:37;;;;;;;8.50;1.70;;;18.90;67.70;;;;;;4215189;27;20043;-40
2022/10/11 01:40:41;;;;;;;4.65;1.58;;;18.90;67.70;;;;;;4218132;27;20035;-42
2022/10/11 01:43:05;;;;;;;4.75;1.60;;;19.00;67.90;;;;;;4221509;27;20040;-41
2022/10/11 01:45:28;;;;;;;2.88;1.23;;;19.00;68.20;;;;;;4217507;27;20504;-44
2022/10/11 01:48:12;;;;;;;4.05;1.63;;;19.10;68.50;;;;;;4215573;28;20043;-43
2022/10/11 01:50:38;;;;;;;4.05;1.60;;;19.10;68.20;;;;;;4217414;27;20376;-42
2022/10/11 01:53:24;;;;;;;2.03;1.20;;;19.20;68.20;;;;;;4216851;27;20039;-44
2022/10/11 01:56:21;;;;;;;2.70;1.40;;;19.30;68.80;;;;;;4213329;27;20471;-41
2022/10/11 01:59:14;;;;;;;4.78;1.55;;;19.30;68.00;;;;;;4219208;27;20126;-45
2022/10/11 02:01:37;;;;;;;4.28;1.17;;;19.40;68.00;;;;;;4218747;27;20112;-47
2022/10/11 02:04:16;;;;;;;3.10;1.40;;;19.40;67.90;;;;;;4220887;27;20055;-42
2022/10/11 02:07:06;;;;;;;2.72;1.27;;;19.40;67.80;;;;;;4216259;27;20040;-46
2022/10/11 02:09:47;;;;;;;3.63;1.50;;;19.40;67.80;;;;;;4224251;27;20035;-41
2022/10/11 02:12:12;;;;;;;3.65;1.65;;;19.40;68.20;;;;;;4217607;28;20058;-41
2022/10/11 02:14:40;;;;;;;2.53;1.42;;;19.50;67.50;;;;;;4222058;27;20039;-43
2022/10/11 02:17:13;;;;;;;4.03;1.40;;;19.50;67.60;;;;;;4217785;28;20032;-40
2022/10/11 02:19:40;;;;;;;4.45;1.73;;;19.50;67.80;;;;;;4217944;28;20057;-40
2022/10/11 02:22:09;;;;;;;3.17;1.20;;;19.50;67.90;;;;;;4215560;27;20035;-43
2022/10/11 02:24:35;;;;;;;13.82;2.15;;;19.50;67.10;;;;;;4217519;27;20479;-40
2022/10/11 02:27:00;;;;;;;17.48;3.08;;;19.50;66.60;;;;;;4221715;28;20088;-39
2022/10/11 02:29:26;;;;;;;57.72;4.05;;;19.50;67.10;;;;;;4215676;27;20071;-41
2022/10/11 02:31:50;;;;;;;13.30;1.98;;;19.50;67.80;;;;;;4224373;27;20031;-41
2022/10/11 02:34:19;;;;;;;16.75;2.05;;;19.50;67.30;;;;;;4214856;27;20096;-40
2022/10/11 02:37:35;;;;;;;12.98;2.47;;;19.60;67.60;;;;;;4218880;27;20137;-39
2022/10/11 02:40:09;;;;;;;12.15;2.63;;;19.60;67.80;;;;;;4150026;28;20456;-40
2022/10/11 02:42:38;;;;;;;15.60;2.33;;;19.60;67.70;;;;;;4217049;27;20047;-39
2022/10/11 02:45:10;;;;;;;15.38;2.45;;;19.60;67.30;;;;;;4213614;28;20139;-39
2022/10/11 02:47:33;;;;;;;8.70;1.75;;;19.60;67.40;;;;;;4216496;28;20141;-39
2022/10/11 02:49:56;;;;;;;14.73;2.28;;;19.70;67.30;;;;;;4218389;28;20124;-39
2022/10/11 02:52:19;;;;;;;9.05;1.95;;;19.70;67.10;;;;;;4218514;28;20043;-39
2022/10/11 02:54:41;;;;;;;9.52;2.30;;;19.70;67.30;;;;;;4216835;28;20056;-40
2022/10/11 02:57:04;;;;;;;7.00;2.10;;;19.80;67.20;;;;;;4220793;28;20050;-42
2022/10/11 02:59:26;;;;;;;7.50;1.83;;;19.80;66.80;;;;;;4216278;28;20383;-39
2022/10/11 03:01:49;;;;;;;2.85;1.48;;;19.90;66.50;;;;;;4221501;28;20119;-41
2022/10/11 03:04:11;;;;;;;5.10;1.45;;;19.90;66.30;;;;;;4219096;28;20039;-39
2022/10/11 03:06:34;;;;;;;5.50;1.50;;;19.90;66.40;;;;;;4221076;28;20115;-39
2022/10/11 03:08:56;;;;;;;7.40;2.35;;;19.90;66.60;;;;;;4222756;28;20050;-39
2022/10/11 03:11:19;;;;;;;2.53;1.50;;;20.00;66.50;;;;;;4221650;28;20038;-40
2022/10/11 03:13:41;;;;;;;5.00;1.98;;;20.00;66.00;;;;;;4217503;28;20134;-38
2022/10/11 03:16:04;;;;;;;2.53;1.50;;;20.00;66.30;;;;;;4222671;28;20104;-39
2022/10/11 03:18:27;;;;;;;2.80;1.30;;;20.00;66.00;;;;;;4223758;28;20059;-39
2022/10/11 03:20:49;;;;;;;2.47;1.50;;;20.10;66.20;;;;;;4219799;28;20384;-41
2022/10/11 03:23:12;;;;;;;2.95;1.20;;;20.10;66.30;;;;;;4226778;28;20043;-40
2022/10/11 03:25:35;;;;;;;3.35;1.30;;;20.10;66.10;;;;;;4225335;28;20080;-39
2022/10/11 03:27:58;;;;;;;4.47;1.55;;;20.20;66.10;;;;;;4218780;28;20032;-39
2022/10/11 03:30:20;;;;;;;5.32;1.45;;;20.20;66.10;;;;;;4219621;28;20035;-38
2022/10/11 03:32:43;;;;;;;2.63;1.30;;;20.20;66.20;;;;;;4215925;28;20043;-39
2022/10/11 03:35:06;;;;;;;3.20;1.40;;;20.30;66.20;;;;;;4219778;28;20120;-40
2022/10/11 03:37:29;;;;;;;2.67;1.50;;;20.30;66.30;;;;;;4213803;28;20083;-40
2022/10/11 03:39:51;;;;;;;3.30;1.30;;;20.30;66.30;;;;;;4212982;28;20117;-40
2022/10/11 03:42:14;;;;;;;4.10;1.25;;;20.30;66.00;;;;;;4220743;28;20042;-43
2022/10/11 03:44:37;;;;;;;4.55;1.77;;;20.30;66.20;;;;;;4217031;28;20042;-39
2022/10/11 03:47:00;;;;;;;3.40;1.33;;;20.30;66.30;;;;;;4216447;28;20513;-42
2022/10/11 03:49:22;;;;;;;3.33;1.30;;;20.30;65.90;;;;;;4213486;28;20131;-46
2022/10/11 03:51:45;;;;;;;2.78;1.25;;;20.30;66.90;;;;;;4221504;28;20044;-44
2022/10/11 03:54:07;;;;;;;4.70;1.50;;;20.30;65.50;;;;;;4210880;28;20783;-48
2022/10/11 03:56:30;;;;;;;3.03;1.45;;;20.30;65.70;;;;;;4212480;27;20045;-43
2022/10/11 03:58:52;;;;;;;1.92;1.20;;;20.30;65.60;;;;;;4217281;28;20079;-42
2022/10/11 04:01:15;;;;;;;2.22;1.40;;;20.30;65.60;;;;;;4207181;28;20409;-45
2022/10/11 04:03:37;;;;;;;3.88;1.30;;;20.30;65.90;;;;;;4209090;27;20039;-45
2022/10/11 04:06:00;;;;;;;3.20;1.40;;;20.30;65.10;;;;;;4196273;27;20180;-44
2022/10/11 04:08:22;;;;;;;3.15;1.33;;;20.30;64.90;;;;;;4209316;27;20040;-44
2022/10/11 04:10:45;;;;;;;5.60;1.90;;;20.30;65.40;;;;;;4206869;28;20375;-45
2022/10/11 04:13:11;;;;;;;3.42;1.58;;;20.30;65.80;;;;;;4198565;28;20131;-46
2022/10/11 04:15:35;;;;;;;3.72;1.33;;;20.30;65.60;;;;;;4206228;28;20043;-45
2022/10/11 04:17:58;;;;;;;3.17;1.20;;;20.30;65.70;;;;;;4212813;27;20399;-44
2022/10/11 04:20:20;;;;;;;3.05;1.55;;;20.30;65.60;;;;;;4203697;27;20035;-45
2022/10/11 04:22:43;;;;;;;5.30;1.50;;;20.30;65.00;;;;;;4214417;27;20083;-46
2022/10/11 04:25:07;;;;;;;5.10;1.50;;;20.30;65.60;;;;;;4209595;27;20439;-44
2022/10/11 04:27:29;;;;;;;3.80;1.42;;;20.30;65.80;;;;;;4209201;27;20078;-45
2022/10/11 04:29:52;;;;;;;2.42;1.25;;;20.30;65.30;;;;;;4211617;27;20490;-44
2022/10/11 04:32:14;;;;;;;2.20;1.10;;;20.40;64.80;;;;;;4216661;28;20126;-42
2022/10/11 04:34:37;;;;;;;1.55;1.15;;;20.40;65.30;;;;;;4215817;27;20147;-44
2022/10/11 04:36:59;;;;;;;3.05;1.00;;;20.40;65.00;;;;;;4212475;27;20036;-48
2022/10/11 04:39:22;;;;;;;4.45;1.50;;;20.30;64.80;;;;;;4213967;27;20086;-45
2022/10/11 04:41:45;;;;;;;2.95;1.48;;;20.30;64.90;;;;;;4211395;27;20482;-46
2022/10/11 04:44:07;;;;;;;5.68;1.40;;;20.30;65.30;;;;;;4207749;27;20968;-46
2022/10/11 04:46:30;;;;;;;5.47;1.65;;;20.30;64.80;;;;;;4209720;27;20074;-49
2022/10/11 04:48:52;;;;;;;4.63;1.30;;;20.40;65.00;;;;;;4208083;27;20085;-46
2022/10/11 04:51:15;;;;;;;6.07;1.95;;;20.30;64.90;;;;;;4215514;27;20024;-48
2022/10/11 04:53:38;;;;;;;2.88;1.77;;;20.40;65.50;;;;;;4214406;27;20043;-45
2022/10/11 04:56:04;;;;;;;3.67;1.20;;;20.40;65.80;;;;;;4215951;27;20094;-44
2022/10/11 04:58:28;;;;;;;5.63;1.45;;;20.40;64.60;;;;;;4218203;27;20502;-44
2022/10/11 05:00:50;;;;;;;9.70;2.03;;;20.50;65.10;;;;;;4227118;27;20470;-45
2022/10/11 05:03:13;;;;;;;5.22;1.70;;;20.50;65.30;;;;;;4222970;27;20043;-45
2022/10/11 05:05:35;;;;;;;4.15;1.30;;;20.50;65.00;;;;;;4214435;27;20419;-50
2022/10/11 05:07:58;;;;;;;7.32;1.60;;;20.50;65.30;;;;;;4224139;28;20122;-46
2022/10/11 05:10:20;;;;;;;6.22;1.40;;;20.50;65.50;;;;;;4223737;27;20519;-48
2022/10/11 05:12:43;;;;;;;4.18;1.50;;;20.50;65.30;;;;;;4217737;27;20047;-47
2022/10/11 05:15:06;;;;;;;6.28;1.80;;;20.60;65.40;;;;;;4222107;27;20055;-46
2022/10/11 05:17:29;;;;;;;5.85;1.98;;;20.60;65.50;;;;;;4217418;27;20061;-44
2022/10/11 05:19:51;;;;;;;7.13;1.92;;;20.70;65.80;;;;;;4229280;27;20054;-44
2022/10/11 05:22:14;;;;;;;7.88;1.67;;;20.90;65.30;;;;;;4213591;28;20387;-44
2022/10/11 05:24:36;;;;;;;11.02;2.22;;;21.10;65.60;;;;;;4212840;27;20074;-43
2022/10/11 05:26:59;;;;;;;6.28;1.50;;;21.20;64.80;;;;;;4214372;28;20454;-45
2022/10/11 05:29:21;;;;;;;2.97;1.35;;;21.30;64.60;;;;;;4218303;28;20589;-43
2022/10/11 05:31:44;;;;;;;2.33;1.45;;;21.30;64.20;;;;;;4218271;27;20031;-44
2022/10/11 05:34:06;;;;;;;5.18;1.20;;;21.30;64.10;;;;;;4213895;27;20040;-41
2022/10/11 05:36:29;;;;;;;6.88;1.50;;;21.50;64.30;;;;;;4217438;27;20055;-42
2022/10/11 05:38:52;;;;;;;2.97;1.50;;;21.60;64.20;;;;;;4219532;27;20051;-43
2022/10/11 05:41:15;;;;;;;6.85;1.70;;;21.60;64.10;;;;;;4204903;27;20044;-41
2022/10/11 05:43:38;;;;;;;8.00;1.63;;;21.60;64.10;;;;;;4223872;27;20061;-44
2022/10/11 05:46:01;;;;;;;4.55;1.33;;;21.70;64.00;;;;;;4218793;27;20405;-47
2022/10/11 05:48:25;;;;;;;2.15;1.42;;;21.80;63.80;;;;;;4216364;28;20038;-42
2022/10/11 05:50:49;;;;;;;3.67;1.38;;;21.80;63.60;;;;;;4212944;28;20059;-48
2022/10/11 05:53:12;;;;;;;2.35;1.38;;;21.80;63.40;;;;;;4217872;27;20035;-44
2022/10/11 05:55:42;;;;;;;4.38;1.58;;;21.90;63.40;;;;;;4211546;27;20039;-44
2022/10/11 05:58:05;;;;;;;2.78;1.30;;;21.90;63.50;;;;;;4212609;28;20081;-46
2022/10/11 06:00:28;;;;;;;7.43;1.42;;;21.80;63.50;;;;;;4219530;28;20130;-43
2022/10/11 06:02:51;;;;;;;5.40;1.60;;;21.80;63.50;;;;;;4221774;27;20118;-46
2022/10/11 06:05:14;;;;;;;2.35;1.38;;;21.90;63.50;;;;;;4219676;27;20034;-45
2022/10/11 06:07:38;;;;;;;3.10;1.25;;;22.00;63.50;;;;;;4219238;27;20713;-43
2022/10/11 06:10:00;;;;;;;3.55;1.25;;;22.00;63.30;;;;;;4208994;27;20035;-46
2022/10/11 06:12:23;;;;;;;4.13;1.15;;;22.00;63.80;;;;;;4219026;27;20129;-44
2022/10/11 06:14:45;;;;;;;4.05;1.50;;;22.10;63.30;;;;;;4212800;27;20039;-45
2022/10/11 06:17:08;;;;;;;4.10;1.17;;;22.10;63.20;;;;;;4220953;27;20185;-45
2022/10/11 06:19:30;;;;;;;2.92;1.00;;;22.10;63.10;;;;;;4215788;27;20036;-46
2022/10/11 06:21:53;;;;;;;2.92;1.10;;;22.20;62.90;;;;;;4217270;27;20422;-49
2022/10/11 06:24:16;;;;;;;2.90;1.10;;;22.30;62.70;;;;;;4214016;27;20074;-44
2022/10/11 06:26:38;;;;;;;2.47;1.08;;;22.30;62.60;;;;;;4215512;27;20048;-43
2022/10/11 06:29:01;;;;;;;2.58;1.40;;;22.40;62.40;;;;;;4220915;27;20031;-47
2022/10/11 06:31:23;;;;;;;2.33;1.20;;;22.40;62.30;;;;;;4223404;27;20032;-45
2022/10/11 06:33:46;;;;;;;4.60;1.30;;;22.50;62.40;;;;;;4210994;28;20077;-49
2022/10/11 06:36:13;;;;;;;2.15;1.20;;;22.50;62.30;;;;;;4213592;28;20483;-43
2022/10/11 06:38:36;;;;;;;3.80;1.40;;;22.50;62.20;;;;;;4216074;28;20043;-49
2022/10/11 06:41:23;;;;;;;4.82;1.15;;;22.60;62.30;;;;;;4207377;28;20473;-44
2022/10/11 06:43:48;;;;;;;3.22;1.23;;;22.60;62.60;;;;;;4224945;27;20848;-42
2022/10/11 06:46:11;;;;;;;1.60;1.00;;;22.60;62.20;;;;;;4221048;28;21011;-42
2022/10/11 06:48:33;;;;;;;2.75;1.23;;;22.60;62.10;;;;;;4226046;27;20111;-49
2022/10/11 06:50:58;;;;;;;2.67;1.30;;;22.60;61.60;;;;;;4185786;28;20499;-45
2022/10/11 06:53:20;;;;;;;3.15;1.05;;;22.60;62.00;;;;;;4211095;28;20100;-47
2022/10/11 06:55:43;;;;;;;4.00;1.30;;;22.60;62.80;;;;;;4219191;28;20039;-45
2022/10/11 06:58:05;;;;;;;3.65;1.20;;;22.60;62.90;;;;;;4218691;28;20067;-47
2022/10/11 07:00:28;;;;;;;1.98;1.20;;;22.60;62.90;;;;;;4208409;28;20052;-44
2022/10/11 07:02:50;;;;;;;10.07;1.98;;;22.60;63.10;;;;;;4203570;28;20038;-45
2022/10/11 07:05:13;;;;;;;5.22;1.60;;;22.60;62.90;;;;;;4209603;28;20039;-44
2022/10/11 07:07:35;;;;;;;5.60;1.13;;;22.60;62.90;;;;;;4211771;28;20036;-46
2022/10/11 07:09:58;;;;;;;5.60;1.27;;;22.60;62.80;;;;;;4215997;28;20402;-45
2022/10/11 07:12:21;;;;;;;5.32;1.40;;;22.50;62.90;;;;;;4212446;28;20331;-44
2022/10/11 07:14:43;;;;;;;7.97;1.23;;;22.50;63.20;;;;;;4221670;28;20436;-48
2022/10/11 07:17:06;;;;;;;3.75;1.17;;;22.50;63.10;;;;;;4215486;28;20035;-47
2022/10/11 07:19:28;;;;;;;4.88;1.10;;;22.50;63.10;;;;;;4217102;28;20514;-44
2022/10/11 07:21:51;;;;;;;8.90;1.48;;;22.40;62.90;;;;;;4219512;28;20452;-45
2022/10/11 07:24:13;;;;;;;5.72;1.52;;;22.40;62.90;;;;;;4219479;28;20513;-43
2022/10/11 07:26:36;;;;;;;3.28;1.10;;;22.40;62.80;;;;;;4214141;28;20036;-44
2022/10/11 07:28:59;;;;;;;3.13;1.05;;;22.40;63.00;;;;;;4218767;28;20093;-49
2022/10/11 07:31:24;;;;;;;2.85;1.15;;;22.40;63.00;;;;;;4219964;27;20513;-47
2022/10/11 07:33:46;;;;;;;4.43;1.38;;;22.30;63.00;;;;;;4220074;27;20359;-44
2022/10/11 07:36:10;;;;;;;5.97;1.48;;;22.30;63.10;;;;;;4221968;27;20055;-46
2022/10/11 07:38:33;;;;;;;3.75;0.90;;;22.30;63.10;;;;;;4228115;27;20130;-48
2022/10/11 07:40:56;;;;;;;5.32;1.50;;;22.30;63.30;;;;;;4221290;27;20546;-44
2022/10/11 07:43:20;;;;;;;2.92;1.30;;;22.30;63.30;;;;;;4218144;27;20107;-45
2022/10/11 07:45:49;;;;;;;1.73;1.17;;;22.20;63.40;;;;;;4220277;27;20118;-43
2022/10/11 07:48:11;;;;;;;2.90;1.50;;;22.20;63.40;;;;;;4227424;27;20469;-44
2022/10/11 07:50:34;;;;;;;1.48;1.00;;;22.20;63.50;;;;;;4223210;27;20035;-44
2022/10/11 07:52:57;;;;;;;3.63;1.10;;;22.20;63.40;;;;;;4212090;27;20035;-46
2022/10/11 07:55:19;;;;;;;2.75;1.15;;;22.20;63.50;;;;;;4220470;27;20031;-44
2022/10/11 07:57:42;;;;;;;1.88;1.13;;;22.10;64.20;;;;;;4218337;27;20051;-44
2022/10/11 08:00:05;;;;;;;4.93;1.27;;;22.10;63.70;;;;;;4225228;27;20032;-44
2022/10/11 08:02:28;;;;;;;2.30;1.10;;;22.10;63.80;;;;;;4220952;27;20146;-44
2022/10/11 08:04:50;;;;;;;2.75;1.10;;;22.10;63.80;;;;;;4215951;27;20107;-44
2022/10/11 08:07:13;;;;;;;2.35;1.42;;;22.10;64.10;;;;;;4208493;28;20042;-46
2022/10/11 08:09:35;;;;;;;2.88;1.23;;;22.00;64.00;;;;;;4214629;27;20036;-46
2022/10/11 08:11:58;;;;;;;2.47;1.10;;;22.00;64.20;;;;;;4215973;28;20489;-48
2022/10/11 08:14:20;;;;;;;3.03;1.20;;;22.00;64.40;;;;;;4219437;27;20031;-46
2022/10/11 08:16:43;;;;;;;4.15;1.20;;;22.00;64.60;;;;;;4217511;27;20644;-44
2022/10/11 08:19:07;;;;;;;4.18;1.42;;;22.00;64.50;;;;;;4211017;27;20765;-45
2022/10/11 08:21:30;;;;;;;3.92;1.40;;;22.00;64.60;;;;;;4217270;27;20028;-45
2022/10/11 08:23:53;;;;;;;1.52;0.88;;;22.00;64.70;;;;;;4216155;27;20043;-48
2022/10/11 08:26:15;;;;;;;8.82;1.13;;;21.90;64.80;;;;;;4209155;28;20032;-48
2022/10/11 08:28:38;;;;;;;4.28;1.58;;;21.90;65.10;;;;;;4215068;27;20036;-48
2022/10/11 08:31:01;;;;;;;8.45;1.67;;;21.90;65.10;;;;;;4201968;28;20579;-45
2022/10/11 08:33:25;;;;;;;1.50;1.17;;;21.90;65.10;;;;;;4211853;27;20067;-46
2022/10/11 08:35:49;;;;;;;5.47;1.60;;;21.80;65.10;;;;;;4218535;27;20048;-46
2022/10/11 08:38:11;;;;;;;;;;;21.80;65.10;;;;;;4219236;27;20056;-44
2022/10/11 08:40:34;;;;;;;3.72;1.42;;;21.90;65.10;;;;;;4217778;27;19926;-46
2022/10/11 08:43:13;;;;;;;4.35;1.70;;;21.80;65.20;;;;;;4204184;28;20467;-44
2022/10/11 08:45:45;;;;;;;3.15;1.30;;;21.80;65.20;;;;;;4204899;28;20150;-44
2022/10/11 08:48:16;;;;;;;6.10;1.40;;;21.80;65.20;;;;;;4211592;27;20452;-46
2022/10/11 08:50:40;;;;;;;2.08;1.27;;;21.70;65.20;;;;;;4212326;27;20043;-46
2022/10/11 08:53:39;;;;;;;3.40;1.13;;;21.70;65.30;;;;;;4215640;27;20054;-46
2022/10/11 08:56:03;;;;;;;1.98;1.35;;;21.70;65.30;;;;;;4208435;27;20430;-45
2022/10/11 08:58:40;;;;;;;2.45;1.08;;;21.70;65.40;;;;;;4210984;27;20849;-48
2022/10/11 09:01:06;;;;;;;3.63;1.40;;;21.60;65.40;;;;;;4211886;27;20028;-47
2022/10/11 09:03:39;;;;;;;3.28;1.60;;;21.60;65.40;;;;;;4214498;27;20491;-47
2022/10/11 09:06:15;;;;;;;2.95;1.48;;;21.60;65.50;;;;;;4213005;27;20126;-47
2022/10/11 09:08:40;;;;;;;2.38;1.50;;;21.60;65.90;;;;;;4216525;27;20082;-44
2022/10/11 09:11:35;;;;;;;2.63;1.63;;;21.60;65.90;;;;;;4217072;27;20050;-43
2022/10/11 09:14:19;;;;;;;2.90;1.73;;;21.60;66.00;;;;;;4221873;27;20139;-45
2022/10/11 09:17:13;;;;;;;3.92;1.60;;;21.50;66.00;;;;;;4218225;27;20085;-43
2022/10/11 09:20:03;;;;;;;2.13;1.38;;;21.50;65.90;;;;;;4221620;27;20055;-45
2022/10/11 09:22:55;;;;;;;3.80;1.70;;;21.50;65.90;;;;;;4220485;27;20067;-43
2022/10/11 09:25:24;;;;;;;8.60;2.47;;;21.50;66.00;;;;;;4157832;28;20408;-44
2022/10/11 09:28:24;;;;;;;5.20;1.90;;;21.50;65.80;;;;;;4228629;27;20160;-44
2022/10/11 09:30:54;;;;;;;7.72;2.13;;;21.50;64.10;;;;;;4224362;27;20356;-45
2022/10/11 09:33:32;;;;;;;4.10;1.85;;;21.50;63.70;;;;;;4219411;27;20065;-44
2022/10/11 09:35:57;;;;;;;3.88;1.70;;;21.50;63.90;;;;;;4220829;27;20124;-44
2022/10/11 09:38:30;;;;;;;7.38;1.98;;;21.50;64.00;;;;;;4220867;27;20047;-45
2022/10/11 09:41:17;;;;;;;4.45;2.30;;;21.50;63.80;;;;;;4218400;27;20355;-43
2022/10/11 09:43:43;;;;;;;11.00;2.20;;;21.50;63.90;;;;;;4221621;27;20436;-44
2022/10/11 09:46:32;;;;;;;5.38;1.95;;;21.50;64.10;;;;;;4224412;27;20481;-44
2022/10/11 09:48:55;;;;;;;2.95;1.50;;;21.50;64.30;;;;;;4225714;27;20042;-44
2022/10/11 09:51:23;;;;;;;3.90;1.73;;;21.50;64.40;;;;;;4220213;27;20039;-44
2022/10/11 09:53:55;;;;;;;8.02;2.00;;;21.50;64.60;;;;;;4219380;27;20405;-47
2022/10/11 09:56:18;;;;;;;6.53;2.17;;;21.50;63.90;;;;;;4220814;27;20031;-47
2022/10/11 09:58:40;;;;;;;6.03;1.67;;;21.50;64.00;;;;;;4227664;27;20482;-49
2022/10/11 10:01:12;;;;;;;4.10;1.63;;;21.50;64.20;;;;;;4225256;27;20395;-47
2022/10/11 10:03:43;;;;;;;5.72;2.08;;;21.50;64.40;;;;;;4229444;27;20038;-48
2022/10/11 10:06:27;;;;;;;5.18;2.15;;;21.60;64.50;;;;;;4219565;27;20087;-47
2022/10/11 10:08:50;;;;;;;5.00;2.00;;;21.60;64.70;;;;;;4230003;27;20042;-48
2022/10/11 10:11:13;;;;;;;5.28;2.15;;;21.60;64.70;;;;;;4227163;27;20549;-47
2022/10/11 10:13:52;;;;;;;4.10;1.73;;;21.60;64.80;;;;;;4223748;27;20104;-50
2022/10/11 10:16:20;;;;;;;5.10;2.00;;;21.60;64.80;;;;;;4215893;28;20048;-50
2022/10/11 10:18:54;;;;;;;4.28;1.73;;;21.60;64.90;;;;;;4219314;28;20046;-49
2022/10/11 10:21:35;;;;;;;3.65;2.00;;;21.60;64.70;;;;;;4221888;27;20035;-46
2022/10/11 10:24:03;;;;;;;3.88;1.80;;;21.70;64.70;;;;;;4210745;27;20057;-47
2022/10/11 10:26:27;;;;;;;2.50;1.60;;;21.70;64.70;;;;;;4231746;27;20035;-48
2022/10/11 10:29:09;;;;;;;3.08;1.42;;;21.70;64.70;;;;;;4226653;27;20044;-49
2022/10/11 10:31:49;;;;;;;3.17;1.98;;;21.70;64.70;;;;;;4220374;27;20035;-49
2022/10/11 10:34:18;;;;;;;5.90;1.98;;;21.70;64.50;;;;;;4222730;27;20062;-47
2022/10/11 10:36:46;;;;;;;5.30;1.88;;;21.70;64.50;;;;;;4228191;27;20044;-48
2022/10/11 10:39:29;;;;;;;4.15;1.80;;;21.70;64.40;;;;;;4223574;27;20053;-46
2022/10/11 10:41:51;;;;;;;5.10;1.85;;;21.70;64.40;;;;;;4223733;27;20078;-49
2022/10/11 10:44:14;;;;;;;2.67;1.80;;;21.80;64.40;;;;;;4217574;27;20043;-47
2022/10/11 10:46:51;;;;;;;5.25;1.92;;;21.70;64.50;;;;;;4224223;27;20042;-49
2022/10/11 10:49:14;;;;;;;3.17;1.63;;;21.80;64.50;;;;;;4222978;27;20118;-50
2022/10/11 10:51:56;;;;;;;4.63;1.65;;;21.70;64.40;;;;;;4205165;28;20035;-46
2022/10/11 10:54:31;;;;;;;2.70;1.70;;;21.80;64.40;;;;;;4220392;28;20047;-46
2022/10/11 10:57:01;;;;;;;3.95;1.38;;;21.80;64.00;;;;;;4224355;28;20746;-47
2022/10/11 10:59:40;;;;;;;3.65;2.05;;;21.70;63.50;;;;;;4218848;28;20043;-49
2022/10/11 11:02:27;;;;;;;2.08;1.67;;;21.70;63.60;;;;;;4216737;28;20038;-47
2022/10/11 11:05:05;;;;;;;3.10;1.73;;;21.70;63.60;;;;;;4222279;28;20122;-47
2022/10/11 11:07:45;;;;;;;4.18;1.70;;;21.70;63.70;;;;;;4227881;27;20047;-51
2022/10/11 11:10:22;;;;;;;3.65;1.90;;;21.70;63.70;;;;;;4220962;27;20357;-47
2022/10/11 11:13:23;;;;;;;2.13;1.48;;;21.70;63.70;;;;;;4222734;27;20051;-51
2022/10/11 11:15:49;;;;;;;1.77;1.40;;;21.70;63.70;;;;;;4225391;27;20032;-47
2022/10/11 11:18:43;;;;;;;2.80;1.85;;;21.70;63.70;;;;;;4225462;27;20059;-46
2022/10/11 11:21:59;;;;;;;2.50;1.65;;;21.70;63.60;;;;;;4227469;27;20031;-48
2022/10/11 11:24:29;;;;;;;;;;;21.70;63.60;;;;;;4172898;28;20041;-48
2022/10/11 11:27:08;;;;;;;3.35;1.92;;;21.70;63.60;;;;;;4167064;28;19919;-47
2022/10/11 11:30:02;;;;;;;2.47;1.50;;;21.70;63.50;;;;;;4201254;27;20049;-50
2022/10/11 11:32:25;;;;;;;6.50;2.50;;;21.70;63.50;;;;;;4218363;27;20118;-47
2022/10/11 11:35:00;;;;;;;4.63;1.70;;;21.70;63.40;;;;;;4212203;27;20039;-45
2022/10/11 11:37:36;;;;;;;5.32;1.73;;;21.70;63.40;;;;;;4220893;27;20059;-48
2022/10/11 11:40:34;;;;;;;4.97;1.65;;;21.70;63.50;;;;;;4212800;27;20051;-46
2022/10/11 11:43:21;;;;;;;2.95;1.63;;;21.60;63.60;;;;;;4219418;27;20122;-48
2022/10/11 11:46:19;;;;;;;16.40;2.30;;;21.60;63.60;;;;;;4224792;27;20046;-49
2022/10/11 11:48:43;;;;;;;4.72;1.85;;;21.60;63.70;;;;;;4183859;28;20035;-50
2022/10/11 11:51:08;;;;;;;;;;;21.60;63.70;;;;;;4215799;27;20131;-48
2022/10/11 11:54:09;;;;;;;3.38;1.60;;;21.60;63.70;;;;;;4207656;27;20656;-47
2022/10/11 11:56:47;;;;;;;4.68;2.10;;;21.60;63.70;;;;;;4221276;27;20509;-48
2022/10/11 11:59:26;;;;;;;4.95;1.95;;;21.60;63.70;;;;;;4214018;27;20472;-51
2022/10/11 12:01:49;;;;;;;4.95;1.85;;;21.60;63.80;;;;;;4213902;27;20036;-49
2022/10/11 12:04:33;;;;;;;3.60;1.80;;;21.60;63.80;;;;;;4213696;27;20417;-50
2022/10/11 12:07:07;;;;;;;2.70;1.60;;;21.50;63.70;;;;;;4221158;27;20168;-46
2022/10/11 12:09:31;;;;;;;8.80;2.10;;;21.50;63.20;;;;;;4221223;27;20584;-49
2022/10/11 12:12:04;;;;;;;17.50;2.65;;;21.50;61.70;;;;;;4208586;27;20117;-45
2022/10/11 12:14:34;;;;;;;9.30;2.10;;;21.50;62.00;;;;;;4221828;27;20261;-46
2022/10/11 12:17:15;;;;;;;4.47;1.85;;;21.40;62.00;;;;;;4217488;27;20040;-46
2022/10/11 12:19:41;;;;;;;10.73;1.70;;;21.40;62.40;;;;;;4218561;27;20040;-46
2022/10/11 12:22:38;;;;;;;4.70;2.10;;;21.40;62.50;;;;;;4219606;27;20032;-46
2022/10/11 12:25:10;;;;;;;6.05;1.50;;;21.40;62.70;;;;;;4215278;27;20047;-46
2022/10/11 12:27:42;;;;;;;4.15;1.77;;;21.30;62.90;;;;;;4217811;27;20082;-46
2022/10/11 12:30:25;;;;;;;4.07;1.65;;;21.30;63.00;;;;;;4212191;27;20040;-45
2022/10/11 12:32:50;;;;;;;2.60;1.77;;;21.30;63.20;;;;;;4200584;27;20040;-46
2022/10/11 12:35:50;;;;;;;4.57;1.60;;;21.30;63.40;;;;;;4213334;27;20035;-48
2022/10/11 12:38:18;;;;;;;7.18;2.10;;;21.30;63.60;;;;;;4160258;28;20724;-43
2022/10/11 12:40:44;;;;;;;4.10;1.75;;;21.20;63.60;;;;;;4213673;27;20488;-46
2022/10/11 12:43:35;;;;;;;4.45;1.80;;;21.20;63.70;;;;;;4217946;27;20032;-44
2022/10/11 12:46:18;;;;;;;3.47;1.30;;;21.20;63.80;;;;;;4188370;27;20043;-44
2022/10/11 12:48:54;;;;;;;3.95;1.73;;;21.20;64.10;;;;;;4219412;27;20535;-44
2022/10/11 12:51:36;;;;;;;5.40;1.73;;;21.10;64.10;;;;;;4217216;27;20042;-43
2022/10/11 12:54:01;;;;;;;2.33;1.42;;;21.10;64.20;;;;;;4220877;27;20039;-43
2022/10/11 12:56:47;;;;;;;2.03;1.33;;;21.10;64.20;;;;;;4217138;27;20040;-44
2022/10/11 12:59:20;;;;;;;2.85;1.40;;;21.10;64.90;;;;;;4190565;27;20036;-43